sensor_id;sensor_type;location;lat;lon;timestamp;pressure;altitude;pressure_sealevel;temperature;humidity
46087;BME280;31824;49.648;8.640;2022-08-01T00:00:24;100233.50;;;23.11;100.00
46087;BME280;31824;49.648;8.640;2022-08-01T00:03:25;100243.00;;;23.03;100.00
46087;BME280;31824;49.648;8.640;2022-08-01T00:06:27;100245.00;;;23.08;100.00
46087;BME280;31824;49.648;8.640;2022-08-01T00:09:29;100240.34;;;22.83;100.00
46087;BME280;31824;49.648;8.640;2022-08-01T00:12:30;100231.28;;;23.01;100.00
46087;BME280;31824;49.648;8.640;2022-08-01T00:15:32;100234.56;;;22.93;100.00
46087;BME280;31824;49.648;8.640;2022-08-01T00:18:33;100237.03;;;22.89;100.00
46087;BME280;31824;49.648;8.640;2022-08-01T00:21:36;100237.13;;;22.71;100.00
46087;BME280;31824;49.648;8.640;2022-08-01T00:24:51;100235.44;;;23.14;100.00
46087;BME280;31824;49.648;8.640;2022-08-01T00:27:53;100235.97;;;23.06;100.00
46087;BME280;31824;49.648;8.640;2022-08-01T00:30:55;100233.44;;;22.88;100.00
46087;BME280;31824;49.648;8.640;2022-08-01T00:33:56;100234.50;;;22.92;100.00
46087;BME280;31824;49.648;8.640;2022-08-01T00:36:58;100244.38;;;22.93;100.00
46087;BME280;31824;49.648;8.640;2022-08-01T00:39:59;100245.25;;;22.93;100.00
46087;BME280;31824;49.648;8.640;2022-08-01T00:43:01;100236.22;;;22.91;100.00
46087;BME280;31824;49.648;8.640;2022-08-01T00:46:02;100251.28;;;22.88;100.00
46087;BME280;31824;49.648;8.640;2022-08-01T00:49:04;100246.81;;;22.67;100.00
46087;BME280;31824;49.648;8.640;2022-08-01T00:52:10;100239.50;;;22.84;100.00
46087;BME280;31824;49.648;8.640;2022-08-01T00:55:12;100240.50;;;22.86;100.00
46087;BME280;31824;49.648;8.640;2022-08-01T00:58:15;100246.44;;;23.00;100.00
46087;BME280;31824;49.648;8.640;2022-08-01T01:01:18;100244.63;;;22.99;100.00
46087;BME280;31824;49.648;8.640;2022-08-01T01:04:22;100247.63;;;23.07;100.00
46087;BME280;31824;49.648;8.640;2022-08-01T01:07:34;100242.38;;;23.10;100.00
46087;BME280;31824;49.648;8.640;2022-08-01T01:11:03;100245.56;;;23.00;100.00
46087;BME280;31824;49.648;8.640;2022-08-01T01:14:13;100241.06;;;22.79;100.00
46087;BME280;31824;49.648;8.640;2022-08-01T01:17:26;100247.34;;;22.80;100.00
46087;BME280;31824;49.648;8.640;2022-08-01T01:21:00;100247.66;;;22.87;100.00
46087;BME280;31824;49.648;8.640;2022-08-01T01:24:28;100244.56;;;22.76;100.00
46087;BME280;31824;49.648;8.640;2022-08-01T01:28:14;100245.22;;;22.72;100.00
46087;BME280;31824;49.648;8.640;2022-08-01T01:31:21;100253.44;;;22.56;100.00
46087;BME280;31824;49.648;8.640;2022-08-01T01:34:26;100260.03;;;22.64;100.00
46087;BME280;31824;49.648;8.640;2022-08-01T01:37:29;100266.34;;;22.65;100.00
46087;BME280;31824;49.648;8.640;2022-08-01T01:40:34;100262.34;;;22.55;100.00
46087;BME280;31824;49.648;8.640;2022-08-01T01:43:37;100258.72;;;22.54;100.00
46087;BME280;31824;49.648;8.640;2022-08-01T01:46:41;100264.31;;;22.59;100.00
46087;BME280;31824;49.648;8.640;2022-08-01T01:49:46;100271.22;;;22.54;100.00
46087;BME280;31824;49.648;8.640;2022-08-01T01:52:48;100273.94;;;22.55;100.00
46087;BME280;31824;49.648;8.640;2022-08-01T01:55:53;100269.13;;;22.68;100.00
46087;BME280;31824;49.648;8.640;2022-08-01T01:58:59;100269.66;;;22.59;100.00
46087;BME280;31824;49.648;8.640;2022-08-01T02:02:03;100266.41;;;22.66;100.00
46087;BME280;31824;49.648;8.640;2022-08-01T02:05:09;100264.56;;;22.85;100.00
46087;BME280;31824;49.648;8.640;2022-08-01T02:08:14;100265.09;;;22.97;100.00
46087;BME280;31824;49.648;8.640;2022-08-01T02:11:19;100268.84;;;23.22;100.00
46087;BME280;31824;49.648;8.640;2022-08-01T02:14:22;100267.88;;;23.00;100.00
46087;BME280;31824;49.648;8.640;2022-08-01T02:17:25;100257.81;;;22.95;100.00
46087;BME280;31824;49.648;8.640;2022-08-01T02:20:29;100266.31;;;23.05;100.00
46087;BME280;31824;49.648;8.640;2022-08-01T02:23:33;100265.94;;;23.17;100.00
46087;BME280;31824;49.648;8.640;2022-08-01T02:26:39;100276.47;;;23.13;100.00
46087;BME280;31824;49.648;8.640;2022-08-01T02:29:45;100280.63;;;22.85;100.00
46087;BME280;31824;49.648;8.640;2022-08-01T02:32:51;100276.63;;;22.96;100.00
46087;BME280;31824;49.648;8.640;2022-08-01T02:35:57;100283.31;;;22.85;100.00
46087;BME280;31824;49.648;8.640;2022-08-01T02:39:21;100282.13;;;23.19;100.00
46087;BME280;31824;49.648;8.640;2022-08-01T02:42:26;100287.59;;;23.02;100.00
46087;BME280;31824;49.648;8.640;2022-08-01T02:45:29;100282.53;;;23.08;100.00
46087;BME280;31824;49.648;8.640;2022-08-01T02:48:33;100287.06;;;23.31;100.00
46087;BME280;31824;49.648;8.640;2022-08-01T02:51:37;100287.72;;;23.46;100.00
46087;BME280;31824;49.648;8.640;2022-08-01T02:54:42;100290.13;;;23.40;100.00
46087;BME280;31824;49.648;8.640;2022-08-01T02:57:45;100278.44;;;23.17;100.00
46087;BME280;31824;49.648;8.640;2022-08-01T03:00:57;100280.75;;;23.29;100.00
46087;BME280;31824;49.648;8.640;2022-08-01T03:03:59;100277.06;;;22.86;100.00
46087;BME280;31824;49.648;8.640;2022-08-01T03:07:04;100281.34;;;23.02;100.00
46087;BME280;31824;49.648;8.640;2022-08-01T03:10:06;100277.94;;;22.85;100.00
46087;BME280;31824;49.648;8.640;2022-08-01T03:13:09;100281.66;;;22.88;100.00
46087;BME280;31824;49.648;8.640;2022-08-01T03:16:12;100281.16;;;22.56;100.00
46087;BME280;31824;49.648;8.640;2022-08-01T03:19:15;100273.53;;;22.66;100.00
46087;BME280;31824;49.648;8.640;2022-08-01T03:22:21;100282.19;;;22.60;100.00
46087;BME280;31824;49.648;8.640;2022-08-01T03:25:25;100283.09;;;22.61;100.00
46087;BME280;31824;49.648;8.640;2022-08-01T03:28:29;100293.66;;;22.38;100.00
46087;BME280;31824;49.648;8.640;2022-08-01T03:31:34;100288.75;;;22.47;100.00
46087;BME280;31824;49.648;8.640;2022-08-01T03:34:36;100287.72;;;22.06;100.00
46087;BME280;31824;49.648;8.640;2022-08-01T03:37:42;100289.06;;;22.16;100.00
46087;BME280;31824;49.648;8.640;2022-08-01T03:41:15;100288.81;;;22.11;100.00
46087;BME280;31824;49.648;8.640;2022-08-01T03:44:24;100288.75;;;22.09;100.00
46087;BME280;31824;49.648;8.640;2022-08-01T03:47:29;100291.28;;;22.06;100.00
46087;BME280;31824;49.648;8.640;2022-08-01T03:50:32;100294.72;;;22.04;100.00
46087;BME280;31824;49.648;8.640;2022-08-01T03:53:36;100284.44;;;21.94;100.00
46087;BME280;31824;49.648;8.640;2022-08-01T03:56:43;100290.03;;;22.18;100.00
46087;BME280;31824;49.648;8.640;2022-08-01T03:59:46;100287.63;;;22.42;100.00
46087;BME280;31824;49.648;8.640;2022-08-01T04:02:49;100284.03;;;22.41;100.00
46087;BME280;31824;49.648;8.640;2022-08-01T04:05:51;100287.34;;;22.36;100.00
46087;BME280;31824;49.648;8.640;2022-08-01T04:08:52;100288.09;;;22.53;100.00
46087;BME280;31824;49.648;8.640;2022-08-01T04:12:01;100285.22;;;22.68;100.00
46087;BME280;31824;49.648;8.640;2022-08-01T04:15:12;100289.91;;;22.73;100.00
46087;BME280;31824;49.648;8.640;2022-08-01T04:18:13;100288.56;;;22.83;100.00
46087;BME280;31824;49.648;8.640;2022-08-01T04:21:18;100295.03;;;22.67;100.00
46087;BME280;31824;49.648;8.640;2022-08-01T04:24:21;100292.97;;;22.62;100.00
46087;BME280;31824;49.648;8.640;2022-08-01T04:27:29;100291.09;;;22.59;100.00
46087;BME280;31824;49.648;8.640;2022-08-01T04:30:54;100292.13;;;22.82;100.00
46087;BME280;31824;49.648;8.640;2022-08-01T04:34:04;100305.53;;;23.03;100.00
46087;BME280;31824;49.648;8.640;2022-08-01T04:37:09;100302.19;;;23.09;100.00
46087;BME280;31824;49.648;8.640;2022-08-01T04:40:14;100307.22;;;23.01;100.00
46087;BME280;31824;49.648;8.640;2022-08-01T04:43:17;100307.59;;;22.89;100.00
46087;BME280;31824;49.648;8.640;2022-08-01T04:46:20;100313.25;;;22.96;100.00
46087;BME280;31824;49.648;8.640;2022-08-01T04:49:23;100309.13;;;23.04;100.00
46087;BME280;31824;49.648;8.640;2022-08-01T04:52:33;100307.59;;;22.89;100.00
46087;BME280;31824;49.648;8.640;2022-08-01T04:55:34;100311.94;;;23.07;100.00
46087;BME280;31824;49.648;8.640;2022-08-01T04:58:36;100315.69;;;22.91;100.00
46087;BME280;31824;49.648;8.640;2022-08-01T05:01:41;100314.06;;;23.14;100.00
46087;BME280;31824;49.648;8.640;2022-08-01T05:04:43;100311.97;;;23.28;100.00
46087;BME280;31824;49.648;8.640;2022-08-01T05:07:45;100316.94;;;23.40;100.00
46087;BME280;31824;49.648;8.640;2022-08-01T05:10:47;100327.94;;;23.46;100.00
46087;BME280;31824;49.648;8.640;2022-08-01T05:13:48;100323.81;;;23.54;100.00
46087;BME280;31824;49.648;8.640;2022-08-01T05:16:50;100331.88;;;23.54;100.00
46087;BME280;31824;49.648;8.640;2022-08-01T05:19:52;100323.88;;;23.35;100.00
46087;BME280;31824;49.648;8.640;2022-08-01T05:22:54;100329.50;;;23.41;100.00
46087;BME280;31824;49.648;8.640;2022-08-01T05:25:58;100327.28;;;23.31;100.00
46087;BME280;31824;49.648;8.640;2022-08-01T05:29:00;100332.25;;;23.42;100.00
46087;BME280;31824;49.648;8.640;2022-08-01T05:32:02;100332.78;;;23.34;100.00
46087;BME280;31824;49.648;8.640;2022-08-01T05:35:05;100337.69;;;23.44;100.00
46087;BME280;31824;49.648;8.640;2022-08-01T05:38:06;100327.69;;;23.19;100.00
46087;BME280;31824;49.648;8.640;2022-08-01T05:41:14;100336.06;;;23.07;100.00
46087;BME280;31824;49.648;8.640;2022-08-01T05:44:16;100339.63;;;23.07;100.00
46087;BME280;31824;49.648;8.640;2022-08-01T05:47:17;100341.28;;;23.04;100.00
46087;BME280;31824;49.648;8.640;2022-08-01T05:50:19;100341.69;;;23.13;100.00
46087;BME280;31824;49.648;8.640;2022-08-01T05:53:20;100337.13;;;23.10;100.00
46087;BME280;31824;49.648;8.640;2022-08-01T05:56:22;100336.34;;;22.93;100.00
46087;BME280;31824;49.648;8.640;2022-08-01T05:59:24;100341.28;;;23.04;100.00
46087;BME280;31824;49.648;8.640;2022-08-01T06:02:25;100340.88;;;23.14;100.00
46087;BME280;31824;49.648;8.640;2022-08-01T06:05:29;100340.16;;;23.18;100.00
46087;BME280;31824;49.648;8.640;2022-08-01T06:08:30;100352.97;;;23.06;100.00
46087;BME280;31824;49.648;8.640;2022-08-01T06:11:32;100359.91;;;23.20;100.00
46087;BME280;31824;49.648;8.640;2022-08-01T06:14:33;100359.25;;;23.26;100.00
46087;BME280;31824;49.648;8.640;2022-08-01T06:17:35;100359.47;;;23.11;100.00
46087;BME280;31824;49.648;8.640;2022-08-01T06:20:36;100355.28;;;23.58;100.00
46087;BME280;31824;49.648;8.640;2022-08-01T06:23:38;100364.81;;;23.73;100.00
46087;BME280;31824;49.648;8.640;2022-08-01T06:26:39;100364.97;;;23.76;100.00
46087;BME280;31824;49.648;8.640;2022-08-01T06:29:41;100367.75;;;23.79;100.00
46087;BME280;31824;49.648;8.640;2022-08-01T06:32:54;100371.56;;;23.84;100.00
46087;BME280;31824;49.648;8.640;2022-08-01T06:35:59;100363.25;;;23.57;100.00
46087;BME280;31824;49.648;8.640;2022-08-01T06:39:01;100365.41;;;23.66;100.00
46087;BME280;31824;49.648;8.640;2022-08-01T06:42:02;100371.63;;;23.86;100.00
46087;BME280;31824;49.648;8.640;2022-08-01T06:45:09;100371.75;;;23.47;100.00
46087;BME280;31824;49.648;8.640;2022-08-01T06:48:11;100373.84;;;23.75;100.00
46087;BME280;31824;49.648;8.640;2022-08-01T06:51:12;100379.44;;;23.81;100.00
46087;BME280;31824;49.648;8.640;2022-08-01T06:54:17;100381.69;;;24.13;100.00
46087;BME280;31824;49.648;8.640;2022-08-01T06:57:19;100377.84;;;24.06;100.00
46087;BME280;31824;49.648;8.640;2022-08-01T07:00:23;100389.16;;;23.99;100.00
46087;BME280;31824;49.648;8.640;2022-08-01T07:03:26;100386.75;;;24.27;100.00
46087;BME280;31824;49.648;8.640;2022-08-01T07:06:48;100386.84;;;24.08;100.00
46087;BME280;31824;49.648;8.640;2022-08-01T07:09:49;100391.50;;;24.12;100.00
46087;BME280;31824;49.648;8.640;2022-08-01T07:12:53;100388.94;;;24.15;100.00
46087;BME280;31824;49.648;8.640;2022-08-01T07:15:55;100395.84;;;24.08;100.00
46087;BME280;31824;49.648;8.640;2022-08-01T07:18:56;100385.41;;;24.39;100.00
46087;BME280;31824;49.648;8.640;2022-08-01T07:21:58;100383.38;;;24.56;100.00
46087;BME280;31824;49.648;8.640;2022-08-01T07:24:59;100385.25;;;24.58;100.00
46087;BME280;31824;49.648;8.640;2022-08-01T07:28:00;100373.25;;;24.49;100.00
46087;BME280;31824;49.648;8.640;2022-08-01T07:31:02;100373.03;;;24.65;100.00
46087;BME280;31824;49.648;8.640;2022-08-01T07:34:04;100368.94;;;24.52;100.00
46087;BME280;31824;49.648;8.640;2022-08-01T07:37:05;100376.06;;;24.74;100.00
46087;BME280;31824;49.648;8.640;2022-08-01T07:40:07;100367.38;;;24.82;100.00
46087;BME280;31824;49.648;8.640;2022-08-01T07:43:09;100369.94;;;25.03;100.00
46087;BME280;31824;49.648;8.640;2022-08-01T07:46:11;100360.59;;;24.91;100.00
46087;BME280;31824;49.648;8.640;2022-08-01T07:49:12;100358.78;;;25.16;100.00
46087;BME280;31824;49.648;8.640;2022-08-01T07:52:14;100365.34;;;24.53;100.00
46087;BME280;31824;49.648;8.640;2022-08-01T07:55:16;100365.19;;;24.49;100.00
46087;BME280;31824;49.648;8.640;2022-08-01T07:58:18;100366.66;;;24.87;100.00
46087;BME280;31824;49.648;8.640;2022-08-01T08:01:19;100364.47;;;25.00;100.00
46087;BME280;31824;49.648;8.640;2022-08-01T08:04:21;100363.31;;;24.69;100.00
46087;BME280;31824;49.648;8.640;2022-08-01T08:07:23;100362.00;;;25.06;100.00
46087;BME280;31824;49.648;8.640;2022-08-01T08:10:25;100361.28;;;25.36;100.00
46087;BME280;31824;49.648;8.640;2022-08-01T08:13:26;100367.09;;;25.24;100.00
46087;BME280;31824;49.648;8.640;2022-08-01T08:16:28;100365.41;;;25.26;100.00
46087;BME280;31824;49.648;8.640;2022-08-01T08:19:29;100376.81;;;25.19;100.00
46087;BME280;31824;49.648;8.640;2022-08-01T08:22:39;100380.25;;;25.15;100.00
46087;BME280;31824;49.648;8.640;2022-08-01T08:25:40;100377.94;;;25.25;100.00
46087;BME280;31824;49.648;8.640;2022-08-01T08:28:42;100378.00;;;25.27;100.00
46087;BME280;31824;49.648;8.640;2022-08-01T08:31:43;100383.19;;;25.22;100.00
46087;BME280;31824;49.648;8.640;2022-08-01T08:34:53;100368.97;;;25.51;100.00
46087;BME280;31824;49.648;8.640;2022-08-01T08:37:54;100365.34;;;25.49;100.00
46087;BME280;31824;49.648;8.640;2022-08-01T08:40:59;100373.03;;;25.38;100.00
46087;BME280;31824;49.648;8.640;2022-08-01T08:44:02;100367.78;;;25.68;100.00
46087;BME280;31824;49.648;8.640;2022-08-01T08:47:04;100374.25;;;25.73;100.00
46087;BME280;31824;49.648;8.640;2022-08-01T08:50:09;100374.25;;;25.48;100.00
46087;BME280;31824;49.648;8.640;2022-08-01T08:53:13;100373.13;;;25.17;100.00
46087;BME280;31824;49.648;8.640;2022-08-01T08:56:20;100368.44;;;25.61;100.00
46087;BME280;31824;49.648;8.640;2022-08-01T08:59:22;100369.97;;;25.53;100.00
46087;BME280;31824;49.648;8.640;2022-08-01T09:02:26;100373.28;;;25.45;100.00
46087;BME280;31824;49.648;8.640;2022-08-01T09:05:28;100367.31;;;25.54;100.00
46087;BME280;31824;49.648;8.640;2022-08-01T09:08:39;100362.66;;;25.49;100.00
46087;BME280;31824;49.648;8.640;2022-08-01T09:11:41;100363.44;;;25.72;100.00
46087;BME280;31824;49.648;8.640;2022-08-01T09:14:45;100368.66;;;26.22;100.00
46087;BME280;31824;49.648;8.640;2022-08-01T09:17:47;100360.53;;;26.20;100.00
46087;BME280;31824;49.648;8.640;2022-08-01T09:20:49;100372.13;;;26.47;99.99
46087;BME280;31824;49.648;8.640;2022-08-01T09:23:53;100381.00;;;26.42;96.54
46087;BME280;31824;49.648;8.640;2022-08-01T09:26:55;100375.75;;;26.18;100.00
46087;BME280;31824;49.648;8.640;2022-08-01T09:30:09;100376.56;;;26.16;96.69
46087;BME280;31824;49.648;8.640;2022-08-01T09:33:12;100383.03;;;26.80;95.14
46087;BME280;31824;49.648;8.640;2022-08-01T09:36:27;100378.19;;;26.99;89.12
46087;BME280;31824;49.648;8.640;2022-08-01T09:39:36;100378.16;;;26.97;99.42
46087;BME280;31824;49.648;8.640;2022-08-01T09:42:38;100384.78;;;26.78;97.52
46087;BME280;31824;49.648;8.640;2022-08-01T09:45:40;100383.34;;;26.91;95.24
46087;BME280;31824;49.648;8.640;2022-08-01T09:49:00;100385.31;;;26.37;97.31
46087;BME280;31824;49.648;8.640;2022-08-01T09:52:15;100377.22;;;26.37;98.77
46087;BME280;31824;49.648;8.640;2022-08-01T09:55:21;100382.19;;;26.52;98.78
46087;BME280;31824;49.648;8.640;2022-08-01T09:58:22;100383.81;;;26.47;100.00
46087;BME280;31824;49.648;8.640;2022-08-01T10:01:24;100383.91;;;26.50;98.51
46087;BME280;31824;49.648;8.640;2022-08-01T10:04:26;100372.03;;;27.04;97.79
46087;BME280;31824;49.648;8.640;2022-08-01T10:07:28;100367.50;;;27.35;96.53
46087;BME280;31824;49.648;8.640;2022-08-01T10:11:07;100365.31;;;27.20;92.19
46087;BME280;31824;49.648;8.640;2022-08-01T10:14:09;100364.16;;;27.10;90.26
46087;BME280;31824;49.648;8.640;2022-08-01T10:17:13;100373.97;;;27.08;92.69
46087;BME280;31824;49.648;8.640;2022-08-01T10:20:22;100376.94;;;26.87;93.54
46087;BME280;31824;49.648;8.640;2022-08-01T10:23:35;100373.84;;;26.73;91.76
46087;BME280;31824;49.648;8.640;2022-08-01T10:26:43;100365.94;;;27.11;86.32
46087;BME280;31824;49.648;8.640;2022-08-01T10:33:10;100365.03;;;27.43;85.20
46087;BME280;31824;49.648;8.640;2022-08-01T10:36:32;100362.44;;;27.46;88.52
46087;BME280;31824;49.648;8.640;2022-08-01T10:39:41;100364.91;;;27.38;89.91
46087;BME280;31824;49.648;8.640;2022-08-01T10:42:44;100367.06;;;27.87;86.02
46087;BME280;31824;49.648;8.640;2022-08-01T10:45:46;100363.53;;;27.54;88.00
46087;BME280;31824;49.648;8.640;2022-08-01T10:51:52;100355.75;;;27.33;86.07
46087;BME280;31824;49.648;8.640;2022-08-01T10:55:06;100351.09;;;27.59;86.64
46087;BME280;31824;49.648;8.640;2022-08-01T10:58:08;100346.00;;;27.72;85.61
46087;BME280;31824;49.648;8.640;2022-08-01T11:01:17;100348.47;;;27.62;81.69
46087;BME280;31824;49.648;8.640;2022-08-01T11:04:20;100346.59;;;27.96;82.69
46087;BME280;31824;49.648;8.640;2022-08-01T11:10:42;100339.97;;;28.20;77.35
46087;BME280;31824;49.648;8.640;2022-08-01T11:17:30;100342.66;;;28.20;78.53
46087;BME280;31824;49.648;8.640;2022-08-01T11:20:55;100342.88;;;28.69;72.48
46087;BME280;31824;49.648;8.640;2022-08-01T11:27:45;100335.53;;;28.63;70.76
46087;BME280;31824;49.648;8.640;2022-08-01T11:30:54;100327.25;;;28.99;75.48
46087;BME280;31824;49.648;8.640;2022-08-01T11:34:17;100326.91;;;29.27;65.18
46087;BME280;31824;49.648;8.640;2022-08-01T11:37:24;100326.69;;;29.18;72.59
46087;BME280;31824;49.648;8.640;2022-08-01T11:40:31;100327.47;;;29.11;67.04
46087;BME280;31824;49.648;8.640;2022-08-01T11:43:33;100312.84;;;28.57;65.37
46087;BME280;31824;49.648;8.640;2022-08-01T11:46:54;100317.13;;;28.45;61.36
46087;BME280;31824;49.648;8.640;2022-08-01T11:50:00;100307.34;;;28.52;64.83
46087;BME280;31824;49.648;8.640;2022-08-01T11:53:05;100316.63;;;29.09;64.83
46087;BME280;31824;49.648;8.640;2022-08-01T11:56:07;100319.69;;;29.28;61.60
46087;BME280;31824;49.648;8.640;2022-08-01T11:59:11;100311.72;;;29.36;60.37
46087;BME280;31824;49.648;8.640;2022-08-01T12:05:32;100303.19;;;29.14;62.98
46087;BME280;31824;49.648;8.640;2022-08-01T12:08:34;100312.53;;;28.41;67.74
46087;BME280;31824;49.648;8.640;2022-08-01T12:11:38;100303.69;;;28.50;61.68
46087;BME280;31824;49.648;8.640;2022-08-01T12:14:40;100306.47;;;28.96;61.20
46087;BME280;31824;49.648;8.640;2022-08-01T12:18:05;100302.03;;;29.00;58.62
46087;BME280;31824;49.648;8.640;2022-08-01T12:21:07;100292.50;;;29.22;61.39
46087;BME280;31824;49.648;8.640;2022-08-01T12:24:08;100297.69;;;29.08;60.60
46087;BME280;31824;49.648;8.640;2022-08-01T12:27:10;100292.50;;;29.20;58.87
46087;BME280;31824;49.648;8.640;2022-08-01T12:30:19;100282.84;;;29.35;57.83
46087;BME280;31824;49.648;8.640;2022-08-01T12:33:23;100281.47;;;29.09;56.92
46087;BME280;31824;49.648;8.640;2022-08-01T12:36:29;100292.91;;;29.42;62.88
46087;BME280;31824;49.648;8.640;2022-08-01T12:39:32;100305.19;;;29.78;59.70
46087;BME280;31824;49.648;8.640;2022-08-01T12:42:37;100290.72;;;30.36;53.07
46087;BME280;31824;49.648;8.640;2022-08-01T12:45:43;100307.06;;;29.82;57.82
46087;BME280;31824;49.648;8.640;2022-08-01T12:48:57;100290.84;;;30.45;56.24
46087;BME280;31824;49.648;8.640;2022-08-01T12:51:59;100288.88;;;29.72;54.96
46087;BME280;31824;49.648;8.640;2022-08-01T12:55:02;100293.19;;;30.19;52.99
46087;BME280;31824;49.648;8.640;2022-08-01T12:58:11;100281.69;;;30.37;58.84
46087;BME280;31824;49.648;8.640;2022-08-01T13:01:25;100277.44;;;29.90;52.51
46087;BME280;31824;49.648;8.640;2022-08-01T13:04:27;100275.25;;;30.27;53.17
46087;BME280;31824;49.648;8.640;2022-08-01T13:07:55;100277.63;;;30.71;55.09
46087;BME280;31824;49.648;8.640;2022-08-01T13:11:08;100273.25;;;30.86;56.86
46087;BME280;31824;49.648;8.640;2022-08-01T13:14:26;100269.97;;;30.39;57.75
46087;BME280;31824;49.648;8.640;2022-08-01T13:17:32;100275.91;;;30.76;54.82
46087;BME280;31824;49.648;8.640;2022-08-01T13:20:36;100270.78;;;30.29;52.70
46087;BME280;31824;49.648;8.640;2022-08-01T13:23:39;100273.06;;;30.00;55.04
46087;BME280;31824;49.648;8.640;2022-08-01T13:27:03;100264.31;;;29.59;58.22
46087;BME280;31824;49.648;8.640;2022-08-01T13:30:13;100261.38;;;30.02;54.74
46087;BME280;31824;49.648;8.640;2022-08-01T13:33:15;100260.13;;;29.80;55.30
46087;BME280;31824;49.648;8.640;2022-08-01T13:36:17;100269.28;;;29.88;55.82
46087;BME280;31824;49.648;8.640;2022-08-01T13:39:29;100262.81;;;29.78;55.03
46087;BME280;31824;49.648;8.640;2022-08-01T13:42:46;100265.97;;;29.51;56.54
46087;BME280;31824;49.648;8.640;2022-08-01T13:45:48;100275.63;;;29.34;57.99
46087;BME280;31824;49.648;8.640;2022-08-01T13:48:50;100270.47;;;29.00;59.34
46087;BME280;31824;49.648;8.640;2022-08-01T13:51:52;100260.03;;;29.20;55.81
46087;BME280;31824;49.648;8.640;2022-08-01T13:54:53;100266.75;;;29.44;57.13
46087;BME280;31824;49.648;8.640;2022-08-01T13:57:55;100256.25;;;29.64;54.90
46087;BME280;31824;49.648;8.640;2022-08-01T14:00:56;100249.19;;;29.75;56.50
46087;BME280;31824;49.648;8.640;2022-08-01T14:04:02;100254.81;;;29.86;54.25
46087;BME280;31824;49.648;8.640;2022-08-01T14:07:04;100252.13;;;29.88;55.81
46087;BME280;31824;49.648;8.640;2022-08-01T14:10:11;100255.75;;;29.88;55.57
46087;BME280;31824;49.648;8.640;2022-08-01T14:13:20;100251.84;;;29.71;56.04
46087;BME280;31824;49.648;8.640;2022-08-01T14:16:24;100246.38;;;30.30;52.56
46087;BME280;31824;49.648;8.640;2022-08-01T14:19:25;100252.03;;;29.83;52.99
46087;BME280;31824;49.648;8.640;2022-08-01T14:22:39;100250.81;;;29.62;54.60
46087;BME280;31824;49.648;8.640;2022-08-01T14:25:41;100252.41;;;30.09;54.23
46087;BME280;31824;49.648;8.640;2022-08-01T14:29:03;100253.66;;;30.35;50.28
46087;BME280;31824;49.648;8.640;2022-08-01T14:32:05;100249.56;;;29.40;53.42
46087;BME280;31824;49.648;8.640;2022-08-01T14:35:07;100255.94;;;29.44;55.11
46087;BME280;31824;49.648;8.640;2022-08-01T14:38:09;100250.06;;;29.73;56.93
46087;BME280;31824;49.648;8.640;2022-08-01T14:41:11;100252.53;;;29.56;54.65
46087;BME280;31824;49.648;8.640;2022-08-01T14:44:13;100251.84;;;29.69;56.39
46087;BME280;31824;49.648;8.640;2022-08-01T14:47:14;100252.75;;;29.71;55.80
46087;BME280;31824;49.648;8.640;2022-08-01T14:50:22;100245.13;;;29.45;53.92
46087;BME280;31824;49.648;8.640;2022-08-01T14:53:25;100247.25;;;29.65;55.48
46087;BME280;31824;49.648;8.640;2022-08-01T14:56:26;100247.16;;;29.60;53.09
46087;BME280;31824;49.648;8.640;2022-08-01T14:59:28;100238.28;;;29.68;55.05
46087;BME280;31824;49.648;8.640;2022-08-01T15:02:29;100238.09;;;29.55;53.35
46087;BME280;31824;49.648;8.640;2022-08-01T15:05:32;100231.13;;;30.37;53.94
46087;BME280;31824;49.648;8.640;2022-08-01T15:08:34;100226.16;;;30.02;53.44
46087;BME280;31824;49.648;8.640;2022-08-01T15:11:36;100235.50;;;29.66;53.20
46087;BME280;31824;49.648;8.640;2022-08-01T15:14:38;100234.44;;;29.55;53.93
46087;BME280;31824;49.648;8.640;2022-08-01T15:17:54;100236.44;;;29.65;55.76
46087;BME280;31824;49.648;8.640;2022-08-01T15:20:56;100240.56;;;30.00;54.21
46087;BME280;31824;49.648;8.640;2022-08-01T15:23:58;100245.25;;;29.52;53.29
46087;BME280;31824;49.648;8.640;2022-08-01T15:27:00;100247.41;;;29.76;53.56
46087;BME280;31824;49.648;8.640;2022-08-01T15:30:03;100241.66;;;30.12;53.47
46087;BME280;31824;49.648;8.640;2022-08-01T15:33:04;100250.94;;;30.31;53.55
46087;BME280;31824;49.648;8.640;2022-08-01T15:36:06;100244.34;;;29.53;53.25
46087;BME280;31824;49.648;8.640;2022-08-01T15:39:12;100249.19;;;29.74;53.82
46087;BME280;31824;49.648;8.640;2022-08-01T15:42:16;100244.53;;;29.63;59.92
46087;BME280;31824;49.648;8.640;2022-08-01T15:45:25;100247.28;;;29.67;56.28
46087;BME280;31824;49.648;8.640;2022-08-01T15:48:47;100249.38;;;29.86;54.77
46087;BME280;31824;49.648;8.640;2022-08-01T15:51:49;100245.00;;;29.36;55.79
46087;BME280;31824;49.648;8.640;2022-08-01T15:54:51;100249.66;;;29.46;55.14
46087;BME280;31824;49.648;8.640;2022-08-01T15:57:53;100246.13;;;29.51;55.45
46087;BME280;31824;49.648;8.640;2022-08-01T16:00:55;100240.47;;;29.37;54.29
46087;BME280;31824;49.648;8.640;2022-08-01T16:03:57;100255.13;;;29.50;55.11
46087;BME280;31824;49.648;8.640;2022-08-01T16:06:59;100245.22;;;29.50;54.06
46087;BME280;31824;49.648;8.640;2022-08-01T16:10:00;100243.06;;;29.30;55.27
46087;BME280;31824;49.648;8.640;2022-08-01T16:13:02;100243.59;;;29.63;56.84
46087;BME280;31824;49.648;8.640;2022-08-01T16:16:07;100236.59;;;29.76;55.31
46087;BME280;31824;49.648;8.640;2022-08-01T16:19:09;100237.41;;;29.70;60.54